Ettrick, Wisconsin
Current Conditions -  °F | °C
As of 1:53 AM on Tuesday 27 Jan 2015 (Local Time) from KLSE Reporting Station
Overcast Overcast  
Wind Chill: 26°   Ceiling: 2600
Heat Index: 31°   Visibility: 10mi
Dew Point: 26°   Wind: 5mph
Humidity: 82%   Direction: 350°N
Pressure: 30.01"   Gusts: NA
Location:  44.17°N, 91.27°W
Report Text: KLSE 270753Z AUTO 35004KT 10SM FEW019 BKN026 OVC041 M01/M03 A3001 RMK AO2 SLP176 T10061033
Loading
Personal Weather Stations






























Interactive Weather Map New forecast layout! Learn more

10-Day Weather Forecast

Advertisements
Track Severe Weather on mobile